createdAt,value
2019-05-03T00:00:02.650Z,2.00
2019-05-03T00:02:52.280Z,2.27
2019-05-03T00:05:24.487Z,2.40
2019-05-03T00:07:55.162Z,2.87
2019-05-03T00:10:23.783Z,2.72
2019-05-03T00:12:52.848Z,3.02
2019-05-03T00:15:43.821Z,2.80
2019-05-03T00:18:12.514Z,2.40
2019-05-03T00:20:42.053Z,2.60
2019-05-03T00:23:12.121Z,3.07
2019-05-03T00:25:41.801Z,2.33
2019-05-03T00:28:15.363Z,2.90
2019-05-03T00:30:43.997Z,2.90
2019-05-03T00:33:12.695Z,2.30
2019-05-03T00:36:19.190Z,2.63
2019-05-03T00:38:48.819Z,2.50
2019-05-03T00:41:17.430Z,2.67
2019-05-03T00:43:46.056Z,2.23
2019-05-03T00:46:14.691Z,3.23
2019-05-03T00:48:43.452Z,2.67
2019-05-03T00:51:12.086Z,2.83
2019-05-03T00:53:42.402Z,3.00
2019-05-03T00:56:12.246Z,2.67
2019-05-03T00:59:06.146Z,3.00
2019-05-03T01:01:34.851Z,2.93
2019-05-03T01:04:03.573Z,2.70
2019-05-03T01:06:32.213Z,3.00
2019-05-03T01:09:02.550Z,3.00
2019-05-03T01:11:32.979Z,3.07
2019-05-03T01:14:02.630Z,3.03
2019-05-03T01:16:31.869Z,3.40
2019-05-03T01:19:02.479Z,3.42
2019-05-03T01:21:31.722Z,3.10
2019-05-03T01:24:01.686Z,3.90
2019-05-03T01:26:31.928Z,3.55
2019-05-03T01:29:02.605Z,3.20
2019-05-03T01:31:31.920Z,3.23
2019-05-03T01:34:02.359Z,3.80
2019-05-03T01:36:32.094Z,3.67
2019-05-03T01:39:02.137Z,3.17
2019-05-03T01:41:32.597Z,4.12
2019-05-03T01:44:01.903Z,2.97
2019-05-03T01:46:31.635Z,3.43
2019-05-03T01:49:28.588Z,3.58
2019-05-03T01:52:25.746Z,3.23
2019-05-03T01:54:54.458Z,3.12
2019-05-03T01:57:23.527Z,3.50
2019-05-03T01:59:52.235Z,3.67
2019-05-03T02:02:29.311Z,3.37
2019-05-03T02:05:16.155Z,3.13
2019-05-03T02:07:44.979Z,3.13
2019-05-03T02:10:13.627Z,3.17
2019-05-03T02:12:42.257Z,3.03
2019-05-03T02:15:11.908Z,3.50
2019-05-03T02:17:42.616Z,3.27
2019-05-03T02:20:12.626Z,3.25
2019-05-03T02:22:42.795Z,3.50
2019-05-03T02:25:12.418Z,3.10
2019-05-03T02:27:42.352Z,3.27
2019-05-03T02:30:14.203Z,3.22
2019-05-03T02:32:43.908Z,3.00
2019-05-03T02:35:14.059Z,3.07
2019-05-03T02:37:44.340Z,3.57
2019-05-03T02:40:13.394Z,3.05
2019-05-03T02:42:46.388Z,2.90
2019-05-03T02:45:21.784Z,3.03
2019-05-03T02:48:06.074Z,3.57
2019-05-03T02:50:36.020Z,3.53
2019-05-03T02:53:05.757Z,4.07
2019-05-03T02:55:36.391Z,3.25
2019-05-03T02:58:05.695Z,3.85
2019-05-03T03:00:59.680Z,3.67
2019-05-03T03:03:29.523Z,3.85
2019-05-03T03:05:58.777Z,4.30
2019-05-03T03:08:28.222Z,3.60
2019-05-03T03:11:00.871Z,4.28
2019-05-03T03:13:30.408Z,3.95
2019-05-03T03:16:02.371Z,3.53
2019-05-03T03:18:32.088Z,4.20
2019-05-03T03:21:00.732Z,4.67
2019-05-03T03:23:30.836Z,4.47
2019-05-03T03:26:00.927Z,4.12
2019-05-03T03:28:32.183Z,4.35
2019-05-03T03:31:28.302Z,3.55
2019-05-03T03:33:59.280Z,4.72
2019-05-03T03:36:43.882Z,4.40
2019-05-03T03:38:58.128Z,5.17
2019-05-03T03:41:27.127Z,4.62
2019-05-03T03:43:57.192Z,4.55
2019-05-03T03:46:27.259Z,4.37
2019-05-03T03:48:56.714Z,4.63
2019-05-03T03:51:26.575Z,3.83
2019-05-03T03:53:56.646Z,4.15
2019-05-03T03:56:26.747Z,3.87
2019-05-03T03:58:55.654Z,4.50
2019-05-03T04:01:26.739Z,4.70
2019-05-03T04:03:56.150Z,4.30
2019-05-03T04:06:40.612Z,3.72
2019-05-03T04:09:09.583Z,4.60
2019-05-03T04:11:38.471Z,4.42
2019-05-03T04:14:09.683Z,3.57
2019-05-03T04:17:10.397Z,3.85
2019-05-03T04:19:40.216Z,4.17
2019-05-03T04:22:08.831Z,3.93
2019-05-03T04:24:37.947Z,4.28
2019-05-03T04:27:18.532Z,4.00
2019-05-03T04:29:37.510Z,4.58
2019-05-03T04:32:06.836Z,4.20
2019-05-03T04:34:36.001Z,4.27
2019-05-03T04:37:05.519Z,4.55
2019-05-03T04:39:35.963Z,4.20
2019-05-03T04:42:06.755Z,4.95
2019-05-03T04:44:35.970Z,4.27
2019-05-03T04:47:06.775Z,3.97
2019-05-03T04:49:36.236Z,4.73
2019-05-03T04:52:05.862Z,4.42
2019-05-03T04:54:45.089Z,3.92
2019-05-03T04:57:15.821Z,4.45
2019-05-03T04:59:45.166Z,4.28
2019-05-03T05:02:15.890Z,3.63
2019-05-03T05:04:46.317Z,3.85
2019-05-03T05:07:15.496Z,3.67
2019-05-03T05:09:45.572Z,4.17
2019-05-03T05:12:16.106Z,3.57
2019-05-03T05:14:45.713Z,3.05
2019-05-03T05:17:17.148Z,2.60
2019-05-03T05:19:52.354Z,3.03
2019-05-03T05:22:24.689Z,2.60
2019-05-03T05:24:55.170Z,2.57
2019-05-03T05:27:29.118Z,2.93
2019-05-03T05:29:58.884Z,1.47
2019-05-03T05:32:27.497Z,1.55
2019-05-03T05:34:56.084Z,1.73
2019-05-03T05:37:25.090Z,1.80
2019-05-03T05:39:55.083Z,2.05
2019-05-03T05:42:25.048Z,1.60
2019-05-03T05:44:55.688Z,1.90
2019-05-03T05:47:44.855Z,2.17
2019-05-03T05:50:27.469Z,2.20
2019-05-03T05:52:56.063Z,2.77
2019-05-03T05:55:46.746Z,2.77
2019-05-03T05:58:28.958Z,3.33
2019-05-03T06:01:10.852Z,3.17
2019-05-03T06:03:39.517Z,2.50
2019-05-03T06:06:10.278Z,2.77
2019-05-03T06:09:00.784Z,3.20
2019-05-03T06:11:50.112Z,3.70
2019-05-03T06:14:32.117Z,3.30
2019-05-03T06:17:15.357Z,3.43
2019-05-03T06:20:03.081Z,3.57
2019-05-03T06:22:42.514Z,3.83
2019-05-03T06:25:20.314Z,3.92
2019-05-03T06:27:48.903Z,3.60
2019-05-03T06:30:27.766Z,3.73
2019-05-03T06:32:56.432Z,3.98
2019-05-03T06:35:25.106Z,3.07
2019-05-03T06:37:54.577Z,3.57
2019-05-03T06:40:25.206Z,4.12
2019-05-03T06:42:56.709Z,3.70
2019-05-03T06:45:25.170Z,3.40
2019-05-03T06:47:55.093Z,3.75
2019-05-03T06:50:27.237Z,4.00
2019-05-03T06:52:54.822Z,3.95
2019-05-03T06:55:24.758Z,4.35
2019-05-03T06:57:54.569Z,3.83
2019-05-03T07:00:50.012Z,3.52
2019-05-03T07:03:36.229Z,4.23
2019-05-03T07:06:40.436Z,3.20
2019-05-03T07:09:32.835Z,3.35
2019-05-03T07:12:01.516Z,3.12
2019-05-03T07:14:30.091Z,3.10
2019-05-03T07:16:58.601Z,3.00
2019-05-03T07:19:28.072Z,3.73
2019-05-03T07:21:56.659Z,3.23
2019-05-03T07:24:25.180Z,3.50
2019-05-03T07:26:55.125Z,3.67
2019-05-03T07:29:25.467Z,1.67
2019-05-03T07:31:54.880Z,3.08
2019-05-03T07:34:24.827Z,3.20
2019-05-03T07:36:55.422Z,3.43
2019-05-03T07:39:24.560Z,2.97
2019-05-03T07:41:55.043Z,2.50
2019-05-03T07:44:25.354Z,3.00
2019-05-03T07:46:55.490Z,3.27
2019-05-03T07:49:24.981Z,2.60
2019-05-03T07:51:55.324Z,2.40
2019-05-03T07:54:24.848Z,2.80
2019-05-03T07:56:58.033Z,2.03
2019-05-03T07:59:26.643Z,2.43
2019-05-03T08:01:56.629Z,2.60
2019-05-03T08:04:25.550Z,2.27
2019-05-03T08:06:54.920Z,1.77
2019-05-03T08:09:24.599Z,2.42
2019-05-03T08:11:54.725Z,1.60
2019-05-03T08:14:25.218Z,1.85
2019-05-03T08:16:54.809Z,2.27
2019-05-03T08:19:26.724Z,2.20
2019-05-03T08:21:56.489Z,2.13
2019-05-03T08:24:25.366Z,1.65
2019-05-03T08:26:55.784Z,1.67
2019-05-03T08:29:24.854Z,1.73
2019-05-03T08:32:11.305Z,2.10
2019-05-03T08:34:47.638Z,1.57
2019-05-03T08:37:27.872Z,3.25
2019-05-03T08:39:55.777Z,3.10
2019-05-03T08:42:25.958Z,2.30
2019-05-03T08:44:55.316Z,2.65
2019-05-03T08:47:24.806Z,3.10
2019-05-03T08:49:55.441Z,3.00
2019-05-03T08:52:24.814Z,2.80
2019-05-03T08:54:55.032Z,2.30
2019-05-03T08:57:25.389Z,2.90
2019-05-03T08:59:54.952Z,2.80
2019-05-03T09:02:25.574Z,2.75
2019-05-03T09:04:54.682Z,2.37
2019-05-03T09:07:25.374Z,2.60
2019-05-03T09:10:19.473Z,2.15
2019-05-03T09:13:07.690Z,2.10
2019-05-03T09:15:36.649Z,2.83
2019-05-03T09:18:05.329Z,2.30
2019-05-03T09:20:35.604Z,3.20
2019-05-03T09:23:05.326Z,1.32
2019-05-03T09:25:35.533Z,2.93
2019-05-03T09:28:04.782Z,2.93
2019-05-03T09:30:35.547Z,2.98
2019-05-03T09:33:05.993Z,3.33
2019-05-03T09:35:35.996Z,3.67
2019-05-03T09:38:05.684Z,3.60
2019-05-03T09:40:35.333Z,2.70
2019-05-03T09:43:04.564Z,3.13
2019-05-03T09:45:35.290Z,2.67
2019-05-03T09:48:05.722Z,1.83
2019-05-03T09:50:35.908Z,3.12
2019-05-03T09:53:07.476Z,2.53
2019-05-03T09:55:38.751Z,2.47
2019-05-03T09:58:07.725Z,2.27
2019-05-03T10:00:36.401Z,2.50
2019-05-03T10:03:05.557Z,2.30
2019-05-03T10:05:35.064Z,2.40
2019-05-03T10:08:05.158Z,2.08
2019-05-03T10:10:53.154Z,2.25
2019-05-03T10:13:30.459Z,2.27
2019-05-03T10:15:59.201Z,2.12
2019-05-03T10:18:27.873Z,2.52
2019-05-03T10:20:56.470Z,2.72
2019-05-03T10:23:45.277Z,3.03
2019-05-03T10:26:14.998Z,1.50
2019-05-03T10:28:43.819Z,2.37
2019-05-03T10:31:12.493Z,2.10
2019-05-03T10:33:45.257Z,0.85
2019-05-03T10:36:15.429Z,1.40
2019-05-03T10:38:45.920Z,1.63
2019-05-03T10:41:15.085Z,1.17
2019-05-03T10:43:45.284Z,1.20
2019-05-03T10:46:15.958Z,1.92
2019-05-03T10:48:45.187Z,1.30
2019-05-03T10:51:15.725Z,1.60
2019-05-03T10:53:46.409Z,1.47
2019-05-03T10:56:23.104Z,2.10
2019-05-03T10:59:09.122Z,1.67
2019-05-03T11:01:56.769Z,1.23
2019-05-03T11:04:25.949Z,1.47
2019-05-03T11:06:55.085Z,0.70
2019-05-03T11:09:25.875Z,1.77
2019-05-03T11:11:55.507Z,1.50
2019-05-03T11:14:25.365Z,1.27
2019-05-03T11:16:55.304Z,1.17
2019-05-03T11:19:25.462Z,1.93
2019-05-03T11:21:54.751Z,1.30
2019-05-03T11:24:27.321Z,1.50
2019-05-03T11:26:55.841Z,1.55
2019-05-03T11:29:24.807Z,1.90
2019-05-03T11:32:09.405Z,1.30
2019-05-03T11:34:56.081Z,2.15
2019-05-03T11:37:49.751Z,1.43
2019-05-03T11:40:18.541Z,1.63
2019-05-03T11:42:47.498Z,1.37
2019-05-03T11:45:16.170Z,2.27
2019-05-03T11:47:45.787Z,0.82
2019-05-03T11:50:14.960Z,1.35
2019-05-03T11:52:46.792Z,2.05
2019-05-03T11:55:16.103Z,1.83
2019-05-03T11:57:45.064Z,1.55
2019-05-03T12:00:15.985Z,1.57
2019-05-03T12:03:18.931Z,2.00
2019-05-03T12:05:51.220Z,1.20
2019-05-03T12:08:20.929Z,1.90
2019-05-03T12:10:57.236Z,2.62
2019-05-03T12:13:28.527Z,1.87
2019-05-03T12:15:59.585Z,1.92
2019-05-03T12:18:28.631Z,1.70
2019-05-03T12:20:58.994Z,1.60
2019-05-03T12:23:31.001Z,2.43
2019-05-03T12:25:58.445Z,2.60
2019-05-03T12:28:27.641Z,1.95
2019-05-03T12:30:56.251Z,1.23
2019-05-03T12:33:25.978Z,1.72
2019-05-03T12:35:55.316Z,1.62
2019-05-03T12:38:25.549Z,1.83
2019-05-03T12:40:54.581Z,1.67
2019-05-03T12:43:25.531Z,1.83
2019-05-03T12:45:54.045Z,1.57
2019-05-03T12:48:24.527Z,1.90
2019-05-03T12:50:53.302Z,1.60
2019-05-03T12:53:24.569Z,1.45
2019-05-03T12:55:52.945Z,1.67
2019-05-03T12:58:25.264Z,1.52
2019-05-03T13:01:11.202Z,1.82
2019-05-03T13:03:51.308Z,0.90
2019-05-03T13:06:19.888Z,1.98
2019-05-03T13:08:48.490Z,2.23
2019-05-03T13:11:17.570Z,2.47
2019-05-03T13:13:46.096Z,2.17
2019-05-03T13:16:18.086Z,2.03
2019-05-03T13:18:46.694Z,2.15
2019-05-03T13:21:15.289Z,1.90
2019-05-03T13:23:45.289Z,2.47
2019-05-03T13:26:14.810Z,2.53
2019-05-03T13:28:45.703Z,1.85
2019-05-03T13:31:16.044Z,2.40
2019-05-03T13:33:45.478Z,2.47
2019-05-03T13:36:15.198Z,2.40
2019-05-03T13:38:45.233Z,2.60
2019-05-03T13:41:14.088Z,2.17
2019-05-03T13:43:42.685Z,2.37
2019-05-03T13:46:11.199Z,2.77
2019-05-03T13:48:45.279Z,2.53
2019-05-03T13:51:10.005Z,2.20
2019-05-03T13:53:38.562Z,2.83
2019-05-03T13:56:07.145Z,2.50
2019-05-03T13:58:36.673Z,2.33
2019-05-03T14:01:05.719Z,2.97
2019-05-03T14:03:35.214Z,2.17
2019-05-03T14:06:08.412Z,2.83
2019-05-03T14:08:34.990Z,1.57
2019-05-03T14:11:04.969Z,2.67
2019-05-03T14:13:35.439Z,3.70
2019-05-03T14:16:05.491Z,2.90
2019-05-03T14:18:35.584Z,3.80
2019-05-03T14:21:34.511Z,3.30
2019-05-03T14:24:12.877Z,3.10
2019-05-03T14:26:42.156Z,3.60
2019-05-03T14:29:10.750Z,2.07
2019-05-03T14:31:40.453Z,2.65
2019-05-03T14:34:08.993Z,3.00
2019-05-03T14:36:37.587Z,2.13
2019-05-03T14:39:09.965Z,2.30
2019-05-03T14:41:38.254Z,3.00
2019-05-03T14:44:06.866Z,2.60
2019-05-03T14:46:36.427Z,2.27
2019-05-03T14:49:06.202Z,2.77
2019-05-03T14:51:35.113Z,2.43
2019-05-03T14:54:05.405Z,3.05
2019-05-03T14:56:52.616Z,3.00
2019-05-03T14:59:38.532Z,2.45
2019-05-03T15:02:15.630Z,2.87
2019-05-03T15:04:44.380Z,2.80
2019-05-03T15:07:15.222Z,3.42
2019-05-03T15:09:45.828Z,3.05
2019-05-03T15:12:14.546Z,3.40
2019-05-03T15:14:45.038Z,3.90
2019-05-03T15:17:13.616Z,2.72
2019-05-03T15:19:42.309Z,3.10
2019-05-03T15:22:10.918Z,3.40
2019-05-03T15:24:39.434Z,2.87
2019-05-03T15:27:08.685Z,3.00
2019-05-03T15:29:37.651Z,2.87
2019-05-03T15:32:06.240Z,2.73
2019-05-03T15:34:35.553Z,3.20
2019-05-03T15:37:05.492Z,2.75
2019-05-03T15:39:34.293Z,3.65
2019-05-03T15:42:05.070Z,3.00
2019-05-03T15:44:55.045Z,3.33
2019-05-03T15:47:30.803Z,3.17
2019-05-03T15:49:59.421Z,2.40
2019-05-03T15:52:28.101Z,3.25
2019-05-03T15:54:56.817Z,2.35
2019-05-03T15:57:28.966Z,2.47
2019-05-03T15:59:57.606Z,2.60
2019-05-03T16:02:26.237Z,2.35
2019-05-03T16:04:57.185Z,2.10
2019-05-03T16:07:25.138Z,2.57
2019-05-03T16:09:55.293Z,3.07
2019-05-03T16:12:24.076Z,3.00
2019-05-03T16:14:52.670Z,1.33
2019-05-03T16:17:21.186Z,2.58
2019-05-03T16:19:49.713Z,3.00
2019-05-03T16:22:18.298Z,3.10
2019-05-03T16:24:47.159Z,2.62
2019-05-03T16:27:24.842Z,3.40
2019-05-03T16:29:54.928Z,2.52
2019-05-03T16:32:23.636Z,2.98
2019-05-03T16:34:52.265Z,3.00
2019-05-03T16:37:20.867Z,3.37
2019-05-03T16:39:49.473Z,3.13
2019-05-03T16:42:18.032Z,3.70
2019-05-03T16:44:47.192Z,3.62
2019-05-03T16:47:15.841Z,3.70
2019-05-03T16:49:44.727Z,3.60
2019-05-03T16:52:14.663Z,3.85
2019-05-03T16:54:45.376Z,3.87
2019-05-03T16:57:14.839Z,3.47
2019-05-03T16:59:44.414Z,3.90
2019-05-03T17:02:14.699Z,4.23
2019-05-03T17:04:48.779Z,3.47
2019-05-03T17:07:36.502Z,5.13
2019-05-03T17:10:34.814Z,6.53
2019-05-03T17:13:05.383Z,5.08
2019-05-03T17:15:35.323Z,4.67
2019-05-03T17:18:04.117Z,4.33
2019-05-03T17:20:34.734Z,4.80
2019-05-03T17:23:04.824Z,4.57
2019-05-03T17:25:35.145Z,5.00
2019-05-03T17:28:05.029Z,4.25
2019-05-03T17:30:37.195Z,4.70
2019-05-03T17:33:04.584Z,5.35
2019-05-03T17:35:34.611Z,5.17
2019-05-03T17:38:05.168Z,6.27
2019-05-03T17:41:02.021Z,8.40
2019-05-03T17:43:37.748Z,9.10
2019-05-03T17:46:07.265Z,5.77
2019-05-03T17:48:35.795Z,5.40
2019-05-03T17:51:04.562Z,6.17
2019-05-03T17:53:52.314Z,5.45
2019-05-03T17:56:39.025Z,5.50
2019-05-03T17:59:11.598Z,6.73
2019-05-03T18:01:58.053Z,6.15
2019-05-03T18:04:55.093Z,6.50
2019-05-03T18:07:31.128Z,5.15
2019-05-03T18:10:00.025Z,6.17
2019-05-03T18:12:28.613Z,6.90
2019-05-03T18:14:57.194Z,6.07
2019-05-03T18:17:25.797Z,6.10
2019-05-03T18:19:55.300Z,4.87
2019-05-03T18:22:24.398Z,5.37
2019-05-03T18:24:54.633Z,4.73
2019-05-03T18:27:25.060Z,5.07
2019-05-03T18:29:55.443Z,6.40
2019-05-03T18:32:25.145Z,5.40
2019-05-03T18:34:54.634Z,7.85
2019-05-03T18:37:24.463Z,5.50
2019-05-03T18:39:54.721Z,4.17
2019-05-03T18:42:31.328Z,7.23
2019-05-03T18:45:01.938Z,7.20
2019-05-03T18:47:30.702Z,10.53
2019-05-03T18:50:00.005Z,8.60
2019-05-03T18:52:28.610Z,5.12
2019-05-03T18:54:58.213Z,4.97
2019-05-03T18:57:27.304Z,5.35
2019-05-03T18:59:55.833Z,4.12
2019-05-03T19:02:25.325Z,3.93
2019-05-03T19:04:55.610Z,4.45
2019-05-03T19:07:36.838Z,5.15
2019-05-03T19:10:15.353Z,4.72
2019-05-03T19:12:51.683Z,5.33
2019-05-03T19:15:20.337Z,4.40
2019-05-03T19:17:55.909Z,4.30
2019-05-03T19:20:24.782Z,5.78
2019-05-03T19:22:54.421Z,4.63
2019-05-03T19:25:25.367Z,4.80
2019-05-03T19:27:54.546Z,5.27
2019-05-03T19:30:24.479Z,5.03
2019-05-03T19:32:55.175Z,4.72
2019-05-03T19:35:27.284Z,5.45
2019-05-03T19:37:55.463Z,4.47
2019-05-03T19:40:25.597Z,4.80
2019-05-03T19:42:55.196Z,5.30
2019-05-03T19:45:24.852Z,5.10
2019-05-03T19:47:55.212Z,4.93
2019-05-03T19:50:26.939Z,4.58
2019-05-03T19:53:05.586Z,4.47
2019-05-03T19:55:34.200Z,4.42
2019-05-03T19:58:05.434Z,4.70
2019-05-03T20:00:57.447Z,3.90
2019-05-03T20:03:35.291Z,3.33
2019-05-03T20:06:17.175Z,3.85
2019-05-03T20:08:50.452Z,3.30
2019-05-03T20:11:19.420Z,3.33
2019-05-03T20:13:48.670Z,3.52
2019-05-03T20:16:17.265Z,3.30
2019-05-03T20:18:45.874Z,3.47
2019-05-03T20:21:15.003Z,2.72
2019-05-03T20:23:46.536Z,2.40
2019-05-03T20:26:14.940Z,1.47
2019-05-03T20:28:44.954Z,2.20
2019-05-03T20:31:13.917Z,2.72
2019-05-03T20:33:42.501Z,2.75
2019-05-03T20:36:11.092Z,3.80
2019-05-03T20:38:39.702Z,0.85
2019-05-03T20:41:08.750Z,3.02
2019-05-03T20:43:56.866Z,2.67
2019-05-03T20:46:31.821Z,2.80
2019-05-03T20:49:04.411Z,2.80
2019-05-03T20:51:34.567Z,2.47
2019-05-03T20:54:04.833Z,2.33
2019-05-03T20:56:33.453Z,2.30
2019-05-03T20:59:02.063Z,2.40
2019-05-03T21:01:30.635Z,2.20
2019-05-03T21:03:59.234Z,2.20
2019-05-03T21:06:35.532Z,2.83
2019-05-03T21:08:58.055Z,3.00
2019-05-03T21:11:26.657Z,2.63
2019-05-03T21:13:55.249Z,2.73
2019-05-03T21:16:41.679Z,2.73
2019-05-03T21:19:35.364Z,3.00
2019-05-03T21:22:09.547Z,1.65
2019-05-03T21:24:51.857Z,2.27
2019-05-03T21:27:20.454Z,3.22
2019-05-03T21:29:55.284Z,3.37
2019-05-03T21:32:25.122Z,3.80
2019-05-03T21:34:55.624Z,3.47
2019-05-03T21:37:24.520Z,5.10
2019-05-03T21:39:54.757Z,5.63
2019-05-03T21:42:23.720Z,6.00
2019-05-03T21:44:52.328Z,6.10
2019-05-03T21:47:35.118Z,6.08
2019-05-03T21:50:05.271Z,5.67
2019-05-03T21:52:35.411Z,5.57
2019-05-03T21:55:05.480Z,4.97
2019-05-03T21:57:34.508Z,4.73
2019-05-03T22:00:05.487Z,4.95
2019-05-03T22:02:35.823Z,4.97
2019-05-03T22:05:04.653Z,4.87
2019-05-03T22:07:34.922Z,3.75
2019-05-03T22:10:04.996Z,5.00
2019-05-03T22:12:33.606Z,4.53
2019-05-03T22:15:10.045Z,3.20
2019-05-03T22:18:04.762Z,2.75
2019-05-03T22:20:39.117Z,1.17
2019-05-03T22:23:37.761Z,2.37
2019-05-03T22:26:06.623Z,2.70
2019-05-03T22:28:35.236Z,3.02
2019-05-03T22:31:06.638Z,3.03
2019-05-03T22:33:34.085Z,3.17
2019-05-03T22:36:08.709Z,3.17
2019-05-03T22:38:36.345Z,2.15
2019-05-03T22:41:05.526Z,2.67
2019-05-03T22:43:34.859Z,3.17
2019-05-03T22:46:05.186Z,2.80
2019-05-03T22:48:33.954Z,2.83
2019-05-03T22:51:04.719Z,2.33
2019-05-03T22:53:34.370Z,3.62
2019-05-03T22:56:04.954Z,3.40
2019-05-03T22:58:35.347Z,3.30
2019-05-03T23:01:03.705Z,3.23
2019-05-03T23:03:35.406Z,3.35
2019-05-03T23:06:05.072Z,3.93
2019-05-03T23:08:34.560Z,3.47
2019-05-03T23:11:05.141Z,3.40
2019-05-03T23:13:33.454Z,3.65
2019-05-03T23:16:01.968Z,1.93
2019-05-03T23:18:30.573Z,3.20
2019-05-03T23:21:15.201Z,2.23
2019-05-03T23:23:52.193Z,2.35
2019-05-03T23:26:20.841Z,3.35
2019-05-03T23:28:49.425Z,2.33
2019-05-03T23:31:17.961Z,3.17
2019-05-03T23:33:46.481Z,2.60
2019-05-03T23:36:15.504Z,2.45
2019-05-03T23:38:45.276Z,2.77
2019-05-03T23:41:15.335Z,2.98
2019-05-03T23:43:45.079Z,2.87
2019-05-03T23:46:15.455Z,1.70
2019-05-03T23:48:44.682Z,3.00
2019-05-03T23:51:32.589Z,3.35
2019-05-03T23:54:01.658Z,3.13
2019-05-03T23:56:31.846Z,2.30
2019-05-03T23:59:00.442Z,3.07
